Virginiborg — PBDL — position and weather

sailwx.info

Track history (hours):
 
Tides and Currents Weather Stations Pressure Air Temp Water Temp Dewpoint Dewpoint Depression Visibility Wind Speed Wind Dir Waves Ship Positions

Virginiborg

Last reported at 2015-Apr-18 14:33 UTC. Time now 2015-Apr-18 15:12 UTC.
Position N 57°04' E 009°58'.

Length 132 m; draft 5 m.

Type: Cargo ship. MMSI: 244632000.

Date/timePositionNaut miles runAvg speedWind from/ knotsBaromVisibWave heightAir tempDewpointWater temp
2015-Apr-18 14:33N 57°04' E 009°58'0 0.0
2015-Apr-18 13:34N 57°04' E 009°58'0 0.0
2015-Apr-18 12:34N 57°04' E 009°58'0 0.0
2015-Apr-18 11:34N 57°04' E 009°58'0 0.0
2015-Apr-18 10:34N 57°04' E 009°58'0 0.0
2015-Apr-18 09:33N 57°04' E 009°58'0 0.0
2015-Apr-18 08:33N 57°04' E 009°58'0 0.0
2015-Apr-18 07:33N 57°04' E 009°58'0 0.1
2015-Apr-18 06:33N 57°04' E 009°58'0 0.0
2015-Apr-18 05:34N 57°04' E 009°58'0 0.0
2015-Apr-18 04:33N 57°04' E 009°58'0 0.0
2015-Apr-18 03:32N 57°04' E 009°58'0 0.0
2015-Apr-18 02:32N 57°04' E 009°58'0 0.0
2015-Apr-18 01:28N 57°04' E 009°58'0 0.0
2015-Apr-18 00:31N 57°04' E 009°58'0 0.0
2015-Apr-17 23:30N 57°04' E 009°58'0 0.0
2015-Apr-17 22:30N 57°04' E 009°58'0 0.0
2015-Apr-17 21:32N 57°04' E 009°58'0 0.0
2015-Apr-17 20:26N 57°04' E 009°58'0 0.0
2015-Apr-17 19:23N 57°04' E 009°58'0 0.0
2015-Apr-17 18:28N 57°04' E 009°58'0 0.0
2015-Apr-17 17:28N 57°04' E 009°58'0 0.0
2015-Apr-17 16:33N 57°04' E 009°58'0 0.0
2015-Apr-17 15:33N 57°04' E 009°58'0 0.0
2015-Apr-17 14:32N 57°04' E 009°58'0 0.0
2015-Apr-17 13:32N 57°04' E 009°58'0 0.0
2015-Apr-17 12:32N 57°04' E 009°58'0 0.0
2015-Apr-17 11:31N 57°04' E 009°58'0 0.0
2015-Apr-17 10:31N 57°04' E 009°58'0 0.0
2015-Apr-17 09:30N 57°04' E 009°58'0 0.0
2015-Apr-17 08:30N 57°04' E 009°58'0 0.0
2015-Apr-17 07:29N 57°04' E 009°58'0 0.0
2015-Apr-17 06:29N 57°04' E 009°58'0 0.0
2015-Apr-17 05:29N 57°04' E 009°58'0 0.0
2015-Apr-17 04:28N 57°04' E 009°58'0 0.0
2015-Apr-17 03:28N 57°04' E 009°58'0 0.0
2015-Apr-17 02:33N 57°04' E 009°58'0 0.0
2015-Apr-17 01:33N 57°04' E 009°58'0 0.0
2015-Apr-17 00:32N 57°04' E 009°58'0 0.0
2015-Apr-16 23:32N 57°04' E 009°58'0 0.0
2015-Apr-16 22:32N 57°04' E 009°58'0 0.0
2015-Apr-16 21:31N 57°04' E 009°58'0 0.0
2015-Apr-16 20:31N 57°04' E 009°58'0 0.0
2015-Apr-16 19:33N 57°04' E 009°58'0 0.0
2015-Apr-16 18:33N 57°04' E 009°58'0 0.0
2015-Apr-16 17:32N 57°04' E 009°58'0 0.0
2015-Apr-16 16:29N 57°04' E 009°58'0 0.0
2015-Apr-16 15:31N 57°04' E 009°58'0 0.0
2015-Apr-16 14:28N 57°04' E 009°58'0 0.0
2015-Apr-16 13:28N 57°04' E 009°58'0 0.0
2015-Apr-16 12:33N 57°04' E 009°58'0 0.0
2015-Apr-16 11:33N 57°04' E 009°58'0 0.0
2015-Apr-16 10:32N 57°04' E 009°58'0 0.0
2015-Apr-16 09:29N 57°04' E 009°58'0 0.0
2015-Apr-16 08:31N 57°04' E 009°58'0 0.0
2015-Apr-16 07:31N 57°04' E 009°58'0 0.0
2015-Apr-16 06:31N 57°04' E 009°58'0 0.0
2015-Apr-16 05:30N 57°04' E 009°58'0 0.0
2015-Apr-16 04:30N 57°04' E 009°58'0 0.0
2015-Apr-16 03:29N 57°04' E 009°58'0 0.0
2015-Apr-16 02:29N 57°04' E 009°58'0 0.0
2015-Apr-16 01:31N 57°04' E 009°58'0 0.0
2015-Apr-16 00:28N 57°04' E 009°58'0 0.0
2015-Apr-15 23:28N 57°04' E 009°58'0 0.0
2015-Apr-15 22:33N 57°04' E 009°58'0 0.0
2015-Apr-15 21:33N 57°04' E 009°58'0 0.0
2015-Apr-15 20:32N 57°04' E 009°58'0 0.0
2015-Apr-15 19:32N 57°04' E 009°58'0 0.0
2015-Apr-15 18:31N 57°04' E 009°58'0 0.0
2015-Apr-15 17:31N 57°04' E 009°58'2 1.9
2015-Apr-15 16:33N 57°05' E 010°02'10 9.7
2015-Apr-15 15:33N 56°59' E 010°16'22 4.9
2015-Apr-15 11:05N 57°16' E 010°42'610.2
2015-Apr-15 10:27N 57°22' E 010°42'910.0
2015-Apr-15 09:33N 57°31' E 010°42'10 9.2
2015-Apr-15 08:26N 57°41' E 010°38'6 1.7
2015-Apr-15 04:33N 57°47' E 010°44'1110.9
2015-Apr-15 03:33N 57°45' E 010°24'1111.1
2015-Apr-15 02:33N 57°41' E 010°04'1110.7
2015-Apr-15 01:33N 57°36' E 009°47'2310.5
2015-Apr-14 23:24N 57°24' E 009°11'13010.1
2015-Apr-14 10:30N 55°42' E 006°45'1110.6
2015-Apr-14 09:27N 55°32' E 006°35'8310.6
2015-Apr-14 01:34N 54°22' E 005°17'1110.8
2015-Apr-14 00:34N 54°13' E 005°06'1110.6
2015-Apr-13 23:34N 54°05' E 004°55'1110.5
2015-Apr-13 22:31N 53°54' E 004°53'1010.3
2015-Apr-13 21:31N 53°44' E 004°51'10 9.9
2015-Apr-13 20:33N 53°34' E 004°48'10 9.7
2015-Apr-13 19:33N 53°25' E 004°41'10 9.5
2015-Apr-13 18:33N 53°17' E 004°35'10 9.6
2015-Apr-13 17:32N 53°07' E 004°29'13 9.6
2015-Apr-13 16:08N 52°56' E 004°18'16 9.6
2015-Apr-13 14:26N 52°42' E 004°02'9 9.9
2015-Apr-13 13:32N 52°36' E 003°52'1110.4
2015-Apr-13 12:30N 52°28' E 003°40'1210.8
2015-Apr-13 11:23N 52°20' E 003°26'5711.8
2015-Apr-13 06:31N 51°36' E 002°25'10 9.9
2015-Apr-13 05:33N 51°29' E 002°15'1110.6
2015-Apr-13 04:33N 51°19' E 002°08'10 9.9
2015-Apr-13 03:33N 51°12' E 001°58'10 9.6
2015-Apr-13 02:33N 51°06' E 001°46'9 8.9
2015-Apr-13 01:33N 50°59' E 001°36'12 8.7
2015-Apr-13 00:13N 50°50' E 001°26'  
2015-Apr-09 06:32N 38°23' W 009°51'1111.4
2015-Apr-09 05:33N 38°12' W 009°50'1111.5
2015-Apr-09 04:33N 38°00' W 009°50'1111.2
2015-Apr-09 03:33N 37°49' W 009°49'1211.3
2015-Apr-09 02:31N 37°38' W 009°49'  
Track history (hours):
 
Tides and Currents Weather Stations Pressure Air Temp Water Temp Dewpoint Dewpoint Depression Visibility Wind Speed Wind Dir Waves Ship Positions

Virginiborg

Last reported at 2015-Apr-18 14:33 UTC. Time now 2015-Apr-18 15:12 UTC.
Position N 57°04' E 009°58'.

Length 132 m; draft 5 m.

Type: Cargo ship. MMSI: 244632000.

Date/timePositionNaut miles runAvg speedWind from/ knotsBaromVisibWave heightAir tempDewpointWater temp
2015-Apr-18 14:33N 57°04' E 009°58'0 0.0
2015-Apr-18 13:34N 57°04' E 009°58'0 0.0
2015-Apr-18 12:34N 57°04' E 009°58'0 0.0
2015-Apr-18 11:34N 57°04' E 009°58'0 0.0
2015-Apr-18 10:34N 57°04' E 009°58'0 0.0
2015-Apr-18 09:33N 57°04' E 009°58'0 0.0
2015-Apr-18 08:33N 57°04' E 009°58'0 0.0
2015-Apr-18 07:33N 57°04' E 009°58'0 0.1
2015-Apr-18 06:33N 57°04' E 009°58'0 0.0
2015-Apr-18 05:34N 57°04' E 009°58'0 0.0
2015-Apr-18 04:33N 57°04' E 009°58'0 0.0
2015-Apr-18 03:32N 57°04' E 009°58'0 0.0
2015-Apr-18 02:32N 57°04' E 009°58'0 0.0
2015-Apr-18 01:28N 57°04' E 009°58'0 0.0
2015-Apr-18 00:31N 57°04' E 009°58'0 0.0
2015-Apr-17 23:30N 57°04' E 009°58'0 0.0
2015-Apr-17 22:30N 57°04' E 009°58'0 0.0
2015-Apr-17 21:32N 57°04' E 009°58'0 0.0
2015-Apr-17 20:26N 57°04' E 009°58'0 0.0
2015-Apr-17 19:23N 57°04' E 009°58'0 0.0
2015-Apr-17 18:28N 57°04' E 009°58'0 0.0
2015-Apr-17 17:28N 57°04' E 009°58'0 0.0
2015-Apr-17 16:33N 57°04' E 009°58'0 0.0
2015-Apr-17 15:33N 57°04' E 009°58'0 0.0
2015-Apr-17 14:32N 57°04' E 009°58'0 0.0
2015-Apr-17 13:32N 57°04' E 009°58'0 0.0
2015-Apr-17 12:32N 57°04' E 009°58'0 0.0
2015-Apr-17 11:31N 57°04' E 009°58'0 0.0
2015-Apr-17 10:31N 57°04' E 009°58'0 0.0
2015-Apr-17 09:30N 57°04' E 009°58'0 0.0
2015-Apr-17 08:30N 57°04' E 009°58'0 0.0
2015-Apr-17 07:29N 57°04' E 009°58'0 0.0
2015-Apr-17 06:29N 57°04' E 009°58'0 0.0
2015-Apr-17 05:29N 57°04' E 009°58'0 0.0
2015-Apr-17 04:28N 57°04' E 009°58'0 0.0
2015-Apr-17 03:28N 57°04' E 009°58'0 0.0
2015-Apr-17 02:33N 57°04' E 009°58'0 0.0
2015-Apr-17 01:33N 57°04' E 009°58'0 0.0
2015-Apr-17 00:32N 57°04' E 009°58'0 0.0
2015-Apr-16 23:32N 57°04' E 009°58'0 0.0
2015-Apr-16 22:32N 57°04' E 009°58'0 0.0
2015-Apr-16 21:31N 57°04' E 009°58'0 0.0
2015-Apr-16 20:31N 57°04' E 009°58'0 0.0
2015-Apr-16 19:33N 57°04' E 009°58'0 0.0
2015-Apr-16 18:33N 57°04' E 009°58'0 0.0
2015-Apr-16 17:32N 57°04' E 009°58'0 0.0
2015-Apr-16 16:29N 57°04' E 009°58'0 0.0
2015-Apr-16 15:31N 57°04' E 009°58'0 0.0
2015-Apr-16 14:28N 57°04' E 009°58'0 0.0
2015-Apr-16 13:28N 57°04' E 009°58'0 0.0
2015-Apr-16 12:33N 57°04' E 009°58'0 0.0
2015-Apr-16 11:33N 57°04' E 009°58'0 0.0
2015-Apr-16 10:32N 57°04' E 009°58'0 0.0
2015-Apr-16 09:29N 57°04' E 009°58'0 0.0
2015-Apr-16 08:31N 57°04' E 009°58'0 0.0
2015-Apr-16 07:31N 57°04' E 009°58'0 0.0
2015-Apr-16 06:31N 57°04' E 009°58'0 0.0
2015-Apr-16 05:30N 57°04' E 009°58'0 0.0
2015-Apr-16 04:30N 57°04' E 009°58'0 0.0
2015-Apr-16 03:29N 57°04' E 009°58'0 0.0
2015-Apr-16 02:29N 57°04' E 009°58'0 0.0
2015-Apr-16 01:31N 57°04' E 009°58'0 0.0
2015-Apr-16 00:28N 57°04' E 009°58'0 0.0
2015-Apr-15 23:28N 57°04' E 009°58'0 0.0
2015-Apr-15 22:33N 57°04' E 009°58'0 0.0
2015-Apr-15 21:33N 57°04' E 009°58'0 0.0
2015-Apr-15 20:32N 57°04' E 009°58'0 0.0
2015-Apr-15 19:32N 57°04' E 009°58'0 0.0
2015-Apr-15 18:31N 57°04' E 009°58'0 0.0
2015-Apr-15 17:31N 57°04' E 009°58'2 1.9
2015-Apr-15 16:33N 57°05' E 010°02'10 9.7
2015-Apr-15 15:33N 56°59' E 010°16'22 4.9
2015-Apr-15 11:05N 57°16' E 010°42'610.2
2015-Apr-15 10:27N 57°22' E 010°42'910.0
2015-Apr-15 09:33N 57°31' E 010°42'10 9.2
2015-Apr-15 08:26N 57°41' E 010°38'6 1.7
2015-Apr-15 04:33N 57°47' E 010°44'1110.9
2015-Apr-15 03:33N 57°45' E 010°24'1111.1
2015-Apr-15 02:33N 57°41' E 010°04'1110.7
2015-Apr-15 01:33N 57°36' E 009°47'2310.5
2015-Apr-14 23:24N 57°24' E 009°11'13010.1
2015-Apr-14 10:30N 55°42' E 006°45'1110.6
2015-Apr-14 09:27N 55°32' E 006°35'8310.6
2015-Apr-14 01:34N 54°22' E 005°17'1110.8
2015-Apr-14 00:34N 54°13' E 005°06'1110.6
2015-Apr-13 23:34N 54°05' E 004°55'1110.5
2015-Apr-13 22:31N 53°54' E 004°53'1010.3
2015-Apr-13 21:31N 53°44' E 004°51'10 9.9
2015-Apr-13 20:33N 53°34' E 004°48'10 9.7
2015-Apr-13 19:33N 53°25' E 004°41'10 9.5
2015-Apr-13 18:33N 53°17' E 004°35'10 9.6
2015-Apr-13 17:32N 53°07' E 004°29'13 9.6
2015-Apr-13 16:08N 52°56' E 004°18'16 9.6
2015-Apr-13 14:26N 52°42' E 004°02'9 9.9
2015-Apr-13 13:32N 52°36' E 003°52'1110.4
2015-Apr-13 12:30N 52°28' E 003°40'1210.8
2015-Apr-13 11:23N 52°20' E 003°26'5711.8
2015-Apr-13 06:31N 51°36' E 002°25'10 9.9
2015-Apr-13 05:33N 51°29' E 002°15'1110.6
2015-Apr-13 04:33N 51°19' E 002°08'10 9.9
2015-Apr-13 03:33N 51°12' E 001°58'10 9.6
2015-Apr-13 02:33N 51°06' E 001°46'9 8.9
2015-Apr-13 01:33N 50°59' E 001°36'12 8.7
2015-Apr-13 00:13N 50°50' E 001°26'  
2015-Apr-09 06:32N 38°23' W 009°51'1111.4
2015-Apr-09 05:33N 38°12' W 009°50'1111.5
2015-Apr-09 04:33N 38°00' W 009°50'1111.2
2015-Apr-09 03:33N 37°49' W 009°49'1211.3
2015-Apr-09 02:31N 37°38' W 009°49'  

Dump ship's entire track history